Norridge, Illinois
Current Conditions -  °F | °C
As of 7:51 AM on Tuesday 21 Oct 2014 (Local Time) from KORD Reporting Station
Broken Clouds Broken Clouds  
Wind Chill: 40°   Ceiling: 4700
Heat Index: 46°   Visibility: 10mi
Dew Point: 39°   Wind: 14mph
Humidity: 76%   Direction: 340°NNW
Pressure: 30.12"   Gusts: NA
Location:  41.9716°N, 87.822°W
Report Text: KORD 211251Z 34012KT 10SM FEW019 BKN047 08/04 A3012 RMK AO2 SLP201 T00780039
Loading
Personal Weather Stations






























Interactive Weather Map
Tropical Storm Tracking
New forecast layout! Learn more

10-Day Weather Forecast

Advertisements
Track Severe Weather on mobile